METAR Data
IDs: Format: Raw Decoded Include TAF

Data at: 2121 UTC 18 Apr 2021

METAR for:KLRD (Laredo Intl Apt, TX, US)
Text:KLRD 182056Z 36007G15KT 10SM SCT085 22/05 A3007 RMK AO2 SLP181 T02170050 56030
Temperature: 21.7°C ( 71°F)
Dewpoint: 5.0°C ( 41°F) [RH = 34%]
Pressure (altimeter):30.07 inches Hg (1018.4 mb) [Sea level pressure: 1018.1 mb]
Winds:from the N (360 degrees) at 8 MPH (7 knots; 3.6 m/s) gusting to 17 MPH (15 knots; 7.7 m/s)
Visibility:10 or more sm (16+ km)
Ceiling:at least 12,000 feet AGL
Clouds: scattered clouds at 8500 feet AGL